Denver International CA :: Cope 120

liberation: 2021-08-21  06:15     latitude: 39.665637     longitude: -102.851897 263 birds
# LOFT PRING MILES ARRIVAL SPEED ToWin
1 Pitita Loft AU21-FH-21488 118.437 2021-08-21 08:56:29.918 1290.713 00:00:00
2 Pitita Loft AU21-FH-21392 118.437 2021-08-21 08:56:31.623 1290.486 00:00:02
3 Pitita Loft AU21-HPR-0127 118.437 2021-08-21 08:56:32.472 1290.373 00:00:03
4 Beto Loft AU21-FH-21471 116.319 2021-08-21 08:54:07.915 1286.488 00:00:31
5 Frank H CAC AU21-FH-21832 116.944 2021-08-21 08:55:11.251 1284.883 00:00:43
6 Frank H CAC AU21-AL-6024 116.944 2021-08-21 08:55:11.646 1284.830 00:00:44
7 Frank H CAC AU21-FRAN-0042 116.944 2021-08-21 08:55:12.217 1284.754 00:00:44
8 Frank H CAC AU21-FRAN-0054 116.944 2021-08-21 08:55:13.080 1284.639 00:00:45
9 Frank H CAC AU21-FRAN-0064 116.944 2021-08-21 08:55:14.667 1284.427 00:00:47
10 Frank H CAC AU21-FH-21825 116.944 2021-08-21 08:55:14.775 1284.412 00:00:47
11 Frank H CAC AU21-FH-21803 116.944 2021-08-21 08:55:15.804 1284.275 00:00:48
12 Frank H CAC AU21-FRAN-0025 116.944 2021-08-21 08:55:15.917 1284.260 00:00:48
13 Frank H CAC AU21-ARPU-18968 116.944 2021-08-21 08:55:16.896 1284.129 00:00:49
14 Frank H CAC AU21-AA-35005 116.944 2021-08-21 08:55:19.993 1283.716 00:00:52
15 Beto Loft AU21-FH-21493 116.319 2021-08-21 08:54:38.746 1282.347 00:01:02
16 Beto Loft AU21-FH-21496 116.319 2021-08-21 08:54:40.293 1282.140 00:01:04
17 Tuna Family Loft AU21-MART-0910 93.915 2021-08-21 08:24:35.822 1275.420 00:01:32
18 HNOS Valenzuela Loft AU21-WSM-0561 116.877 2021-08-21 08:56:23.952 1274.503 00:02:02
19 HNOS Valenzuela Loft AU21-FH-21595 116.877 2021-08-21 08:56:26.081 1274.223 00:02:04
20 HNOS Valenzuela Loft AU21-FH-21582 116.877 2021-08-21 08:56:29.753 1273.740 00:02:07
21 HNOS Valenzuela Loft AU21-ESM-1307 116.877 2021-08-21 08:56:33.604 1273.234 00:02:11
22 HNOS Valenzuela Loft AU21-ARPU-110316 116.877 2021-08-21 08:56:37.257 1272.754 00:02:15
23 Pitita Loft AU21-FH-21447 118.437 2021-08-21 08:58:50.311 1272.279 00:02:20
24 HNOS Valenzuela Loft AU21-CHP-4196 116.877 2021-08-21 08:56:41.535 1272.193 00:02:19
25 HNOS Valenzuela Loft AU21-FH-21518 116.877 2021-08-21 08:56:43.006 1272.000 00:02:21
26 HNOS Valenzuela Loft AU21-ESM-1330 116.877 2021-08-21 08:56:45.966 1271.612 00:02:24
27 HNOS Valenzuela Loft AU21-ZEPH-2185 116.877 2021-08-21 08:56:52.517 1270.755 00:02:30
28 Beto Loft AU21-FH-21494 116.319 2021-08-21 08:56:28.115 1267.871 00:02:51
29 Frank H CAC AU21-FRAN-0052 116.944 2021-08-21 08:57:32.147 1266.320 00:03:04
30 HNOS Valenzuela Loft AU21-FH-21568 116.877 2021-08-21 08:57:27.076 1266.249 00:03:05
31 Frank H CAC AU21-HPR-0150 116.944 2021-08-21 08:57:33.576 1266.134 00:03:06
32 HNOS Valenzuela Loft AU21-FH-21567 116.877 2021-08-21 08:57:28.526 1266.061 00:03:06
33 Frank H CAC AU21-FRAN-0051 116.944 2021-08-21 08:57:35.248 1265.917 00:03:07
34 Frank H CAC AU21-FRAN-0100 116.944 2021-08-21 08:57:36.500 1265.755 00:03:09
35 Frank H CAC AU21-FRAN-0024 116.944 2021-08-21 08:57:38.711 1265.468 00:03:11
36 Frank H CAC AU21-FRAN-0011 116.944 2021-08-21 08:57:59.781 1262.741 00:03:32
37 Pitita Loft AU21-FH-21441 118.437 2021-08-21 09:02:20.588 1245.634 00:05:51
38 Pitita Loft AU21-FH-21334 118.437 2021-08-21 09:02:23.191 1245.312 00:05:53
39 HNOS Valenzuela Loft AU21-FH-21569 116.877 2021-08-21 09:00:11.372 1245.259 00:05:49
40 Pitita Loft AU21-FH-21440 118.437 2021-08-21 09:02:24.376 1245.165 00:05:54
41 HNOS Valenzuela Loft AU21-FH-21529 116.877 2021-08-21 09:00:21.671 1243.967 00:05:59
42 HNOS Valenzuela Loft AU21-AA-32326 116.877 2021-08-21 09:02:25.304 1228.656 00:08:03
43 HNOS Valenzuela Loft AU21-FH-21865 116.877 2021-08-21 09:02:25.919 1228.581 00:08:04
44 Beto Loft AU21-FH-21562 116.319 2021-08-21 09:03:05.714 1217.889 00:09:29
45 HNOS Valenzuela Loft AU21-AA-32878 116.877 2021-08-21 09:06:12.988 1201.425 00:11:51
46 Pitita Loft AU21-FH-21521 118.437 2021-08-21 09:09:16.150 1196.129 00:12:46
47 Frank H CAC AU21-FRAN-0071 116.944 2021-08-21 09:07:10.720 1195.399 00:12:43
48 Pitita Loft AU21-FH-21406 118.437 2021-08-21 09:10:09.116 1190.100 00:13:39
49 Pitita Loft AU21-FH-21400 118.437 2021-08-21 09:10:18.374 1189.053 00:13:48
50 Pitita Loft AU21-FH-21423 118.437 2021-08-21 09:10:29.019 1187.851 00:13:59
51 Pitita Loft AU21-FH-21436 118.437 2021-08-21 09:10:33.153 1187.385 00:14:03
52 HNOS Valenzuela Loft AU21-AA-32322 116.877 2021-08-21 09:10:14.950 1173.779 00:15:53
53 Beto Loft AU21-FH-21559 116.319 2021-08-21 09:09:29.740 1173.217 00:15:53
54 Beto Loft AU21-FH-21450 116.319 2021-08-21 09:09:31.737 1172.993 00:15:55
55 Pitita Loft AU21-HPR-0137 118.437 2021-08-21 09:13:02.438 1170.791 00:16:33
56 Pitita Loft AU21-FH-21390 118.437 2021-08-21 09:15:45.279 1153.212 00:19:15
57 Pitita Loft AU21-FH-21394 118.437 2021-08-21 09:16:00.578 1151.587 00:19:31
58 Pitita Loft AU21-FH-21412 118.437 2021-08-21 09:16:01.749 1151.463 00:19:32
59 Pitita Loft AU21-FH-21395 118.437 2021-08-21 09:16:02.123 1151.423 00:19:32
60 HNOS Valenzuela Loft AU21-AA-32871 116.877 2021-08-21 09:13:45.453 1150.742 00:19:23
61 HNOS Valenzuela Loft AU21-FH-21575 116.877 2021-08-21 09:13:45.857 1150.698 00:19:24
62 HNOS Valenzuela Loft AU21-FH-21586 116.877 2021-08-21 09:13:50.395 1150.212 00:19:28
63 HNOS Valenzuela Loft AU21-FH-21571 116.877 2021-08-21 09:13:51.706 1150.071 00:19:29
64 HNOS Valenzuela Loft AU21-ZEPH-2189 116.877 2021-08-21 09:13:52.106 1150.028 00:19:30
65 HNOS Valenzuela Loft AU21-FH-21540 116.877 2021-08-21 09:13:58.916 1149.299 00:19:37
66 HNOS Valenzuela Loft AU21-FH-21525 116.877 2021-08-21 09:14:00.552 1149.124 00:19:38
67 HNOS Valenzuela Loft AU21-FH-21584 116.877 2021-08-21 09:14:03.787 1148.778 00:19:41
68 HNOS Valenzuela Loft AU21-FH-21523 116.877 2021-08-21 09:14:06.181 1148.522 00:19:44
69 Beto Loft AU21-FH-21482 116.319 2021-08-21 09:13:14.923 1148.515 00:19:38
70 HNOS Valenzuela Loft AU21-FH-21552 116.877 2021-08-21 09:14:06.292 1148.510 00:19:44
71 Beto Loft AU21-FH-21566 116.319 2021-08-21 09:13:17.130 1148.278 00:19:40
72 HNOS Valenzuela Loft AU21-FH-21539 116.877 2021-08-21 09:14:08.979 1148.223 00:19:47
73 Beto Loft AU21-FH-21487 116.319 2021-08-21 09:13:19.944 1147.976 00:19:43
74 Frank H CAC AU21-FRAN-0068 116.944 2021-08-21 09:14:19.313 1147.781 00:19:51
75 Frank H CAC AU21-AL-6034 116.944 2021-08-21 09:14:20.192 1147.687 00:19:52
76 Frank H CAC AU21-FRAN-0023 116.944 2021-08-21 09:14:21.699 1147.526 00:19:54
77 Frank H CAC AU21-FRAN-0005 116.944 2021-08-21 09:14:24.395 1147.239 00:19:57
78 Frank H CAC AU21-FH-21821 116.944 2021-08-21 09:14:25.889 1147.080 00:19:58
79 Frank H CAC AU21-FH-21817 116.944 2021-08-21 09:14:27.706 1146.886 00:20:00
80 HNOS Valenzuela Loft AU21-HPR-0133 116.877 2021-08-21 09:14:22.168 1146.816 00:20:00
81 HNOS Valenzuela Loft AU21-FH-21557 116.877 2021-08-21 09:15:07.739 1141.980 00:20:45
82 Pitita Loft AU21-FH-21433 118.437 2021-08-21 09:18:03.212 1138.729 00:21:33
83 Pitita Loft AU21-FH-21338 118.437 2021-08-21 09:18:04.811 1138.563 00:21:35
84 Pitita Loft AU21-WIND-0335 118.437 2021-08-21 09:18:08.396 1138.192 00:21:38
85 Pitita Loft AU21-FH-21422 118.437 2021-08-21 09:18:15.626 1137.443 00:21:46
86 Beto Loft AU21-FH-21497 116.319 2021-08-21 09:16:23.050 1128.661 00:22:46
87 Frank H CAC AU21-FRAN-0046 116.944 2021-08-21 09:18:23.466 1122.313 00:23:56
88 Frank H CAC AU21-FRAN-0067 116.944 2021-08-21 09:18:23.844 1122.275 00:23:56
89 HNOS Valenzuela Loft AU21-AA-32329 116.877 2021-08-21 09:18:37.934 1120.194 00:24:16
90 HNOS Valenzuela Loft AU21-ARPU-75954 116.877 2021-08-21 09:18:38.540 1120.133 00:24:16
91 HNOS Valenzuela Loft AU21-FH-21501 116.877 2021-08-21 09:18:42.703 1119.710 00:24:20
92 HNOS Valenzuela Loft AU21-ARPU-110303 116.877 2021-08-21 09:18:44.831 1119.493 00:24:23
93 HNOS Valenzuela Loft AU21-FH-21524 116.877 2021-08-21 09:18:46.127 1119.362 00:24:24
94 Frank H CAC AU21-AL-6033 116.944 2021-08-21 09:18:54.647 1119.142 00:24:27
95 HNOS Valenzuela Loft AU21-FH-21583 116.877 2021-08-21 09:18:50.539 1118.914 00:24:28
96 Beto Loft AU21-FH-21554 116.319 2021-08-21 09:18:37.466 1114.891 00:25:01
97 Beto Loft AU21-FH-21461 116.319 2021-08-21 09:19:48.629 1107.736 00:26:12
98 Beto Loft AU21-FH-21460 116.319 2021-08-21 09:20:40.331 1102.595 00:27:04
99 Beto Loft AU21-FH-21464 116.319 2021-08-21 09:21:04.231 1100.235 00:27:28
100 Pitita Loft AU21-FH-21419 118.437 2021-08-21 09:24:46.939 1098.355 00:28:17
101 HNOS Valenzuela Loft AU21-FH-21519 116.877 2021-08-21 09:22:30.175 1097.070 00:28:08
102 Tuna Family Loft AU21-TUNA-0057 93.915 2021-08-21 08:46:16.753 1092.620 00:23:13
103 Beto Loft AU21-FH-21570 116.319 2021-08-21 09:22:56.541 1089.277 00:29:20
104 Beto Loft AU21-FH-21463 116.319 2021-08-21 09:23:00.000 1088.943 00:29:23
105 HNOS Valenzuela Loft AU21-FH-21555 116.877 2021-08-21 09:24:31.502 1085.365 00:30:09
106 Beto Loft AU21-FH-21478 116.319 2021-08-21 09:25:43.105 1073.422 00:32:06
107 Frank H CAC AU21-FH-21814 116.944 2021-08-21 09:33:40.742 1035.954 00:39:13
108 Beto Loft AU21-FH-21474 116.319 2021-08-21 09:37:43.061 1009.884 00:44:06
109 Tuna Family Loft AU21-FOYS-7194 93.915 2021-08-21 08:59:09.849 1006.862 00:36:06
110 Tuna Family Loft AU21-TUNA-0020 93.915 2021-08-21 09:01:59.551 989.809 00:38:56
111 Tuna Family Loft AU21-ESM-1482 93.915 2021-08-21 09:02:57.401 984.127 00:39:54
112 Tuna Family Loft AU21-TUNA-0080 93.915 2021-08-21 09:03:30.229 980.931 00:40:27
113 Beto Loft AU21-FH-21473 116.319 2021-08-21 09:53:12.902 938.163 00:59:36
114 Tuna Family Loft AU21-TUNA-0081 93.915 2021-08-21 09:15:01.325 918.169 00:51:58
115 Beto Loft AU21-FH-21457 116.319 2021-08-21 10:00:46.308 906.762 01:07:10
116 Beto Loft AU21-FH-21483 116.319 2021-08-21 10:01:30.094 903.841 01:07:53
117 Frank H CAC AU21-AL-6040 116.944 2021-08-21 10:04:53.624 895.293 01:10:26
118 Tuna Family Loft AU21-CHP-4194 93.915 2021-08-21 09:26:43.414 862.130 01:03:40
119 Beto Loft AU21-FH-21470 116.319 2021-08-21 10:12:42.382 861.236 01:19:06
120 Frank H CAC AU21-FRAN-0026 116.944 2021-08-21 10:14:29.233 859.429 01:20:01
121 Frank H CAC AU21-CHP-4195 116.944 2021-08-21 10:14:31.470 859.295 01:20:04
122 Tuna Family Loft AU21-TUNA-0075 93.915 2021-08-21 09:27:28.785 858.743 01:04:25
123 Tuna Family Loft AU21-TUNA-0078 93.915 2021-08-21 09:27:31.467 858.544 01:04:28
124 Tuna Family Loft AU21-MART-0913 93.915 2021-08-21 09:27:33.886 858.364 01:04:30
125 Tuna Family Loft AU21-TUNA-0070 93.915 2021-08-21 09:27:37.836 858.071 01:04:34
126 Tuna Family Loft AU21-TUNA-0046 93.915 2021-08-21 09:27:48.905 857.250 01:04:45
127 Tuna Family Loft AU21-MART-0950 93.915 2021-08-21 09:30:01.905 847.506 01:06:58
128 Tuna Family Loft AU21-FOYS-7188 93.915 2021-08-21 09:33:30.149 832.688 01:10:26
129 Tuna Family Loft AU21-TUNA-0042 93.915 2021-08-21 09:34:16.165 829.483 01:11:12
130 Tuna Family Loft AU21-MART-0918 93.915 2021-08-21 09:34:24.810 828.884 01:11:21
131 Nuevitas Loft AU21-ARPU-4985 107.774 2021-08-21 10:05:39.033 822.380 01:23:41
132 Nuevitas Loft AU21-ARPU-4931 107.774 2021-08-21 10:06:38.242 818.876 01:24:41
133 Tuna Family Loft AU21-TUNA-0067 93.915 2021-08-21 09:42:08.221 797.977 01:19:05
134 Nuevitas Loft AU21-ARPU-4986 107.774 2021-08-21 10:15:40.717 788.115 01:33:43
135 Beto Loft AU21-FH-21481 116.319 2021-08-21 10:34:46.726 788.060 01:41:10
136 Tuna Family Loft AU21-ARPU-78001 93.915 2021-08-21 09:56:33.337 746.046 01:33:30
137 Silver Dollar Loft AU21-BEST-0065 110.463 2021-08-21 10:36:26.703 743.617 01:50:49
138 Nuevitas Loft AU21-NAPL-0631 107.774 2021-08-21 10:33:47.990 732.931 01:51:50
139 Tuna Family Loft AU21-MART-0914 93.915 2021-08-21 10:00:58.714 731.444 01:37:55
140 Tuna Family Loft AU21-TUNA-0074 93.915 2021-08-21 10:02:18.556 727.162 01:39:15
141 Tuna Family Loft AU21-TUNA-0063 93.915 2021-08-21 10:05:24.100 717.402 01:42:20
142 Tuna Family Loft AU21-MART-0922 93.915 2021-08-21 10:14:23.433 690.464 01:51:20
143 Tuna Family Loft AU21-FOYS-7144 93.915 2021-08-21 10:24:50.842 661.567 02:01:47
144 Tuna Family Loft AU21-TUNA-0056 93.915 2021-08-21 10:25:00.856 661.125 02:01:57
145 Silver Dollar Loft AU21-AA-35006 110.463 2021-08-21 11:09:22.671 660.427 02:23:45
146 Nuevitas Loft AU21-ARPU-4902 107.774 2021-08-21 11:02:25.308 659.944 02:20:28
147 Tuna Family Loft AU21-TUNA-0066 93.915 2021-08-21 10:29:28.201 649.549 02:06:25
148 Silver Dollar Loft AU21-JFL-0326 110.463 2021-08-21 11:24:36.052 627.954 02:38:58
149 Tuna Family Loft AU21-TUNA-0002 93.915 2021-08-21 10:45:49.280 610.331 02:22:46
150 Tuna Family Loft AU21-TUNA-0008 93.915 2021-08-21 10:50:07.521 600.783 02:27:04
151 Silver Dollar Loft AU21-SILV-0011 110.463 2021-08-21 11:40:56.592 596.469 02:55:19
152 Tuna Family Loft AU21-CHP-5072 93.915 2021-08-21 11:23:15.291 536.214 03:00:12
153 Tuna Family Loft AU21-TUNA-0077 93.915 2021-08-21 11:29:56.295 524.835 03:06:53
154 Tuna Family Loft AU21-TUNA-0003 93.915 2021-08-21 11:29:57.877 524.791 03:06:54
155 Silver Dollar Loft AU21-SILV-0001 110.463 2021-08-21 12:40:34.863 504.213 03:54:57
156 Tuna Family Loft AU21-TUNA-0018 93.915 2021-08-21 11:50:10.228 493.154 03:27:07
157 Silver Dollar Loft AU21-SILV-0014 110.463 2021-08-21 13:15:01.089 462.873 04:29:24
158 Silver Dollar Loft AU21-SILV-0055 110.463 2021-08-21 13:54:57.060 422.686 05:09:20
159 Silver Dollar Loft AU21-SILV-0072 110.463 2021-08-21 14:00:24.791 417.726 05:14:47
160 Tuna Family Loft AU21-FOYS-7167 93.915 2021-08-21 13:49:16.360 363.858 05:26:13
Beto Loft AU21-FH-21454 0 0000-00-00 00:00:00.000 0.000 00:00:00
Beto Loft AU21-FH-21465 0 0000-00-00 00:00:00.000 0.000 00:00:00
Beto Loft AU21-FH-21469 0 0000-00-00 00:00:00.000 0.000 00:00:00
Beto Loft AU21-FH-21479 0 0000-00-00 00:00:00.000 0.000 00:00:00
Beto Loft AU21-FH-21491 0 0000-00-00 00:00:00.000 0.000 00:00:00
Beto Loft AU21-FH-21492 0 0000-00-00 00:00:00.000 0.000 00:00:00
Beto Loft AU21-NCF-0105 0 0000-00-00 00:00:00.000 0.000 00:00:00
Frank H CAC AU21-FH-21834 0 0000-00-00 00:00:00.000 0.000 00:00:00
HNOS Valenzuela Loft AU21-FH-21513 0 0000-00-00 00:00:00.000 0.000 00:00:00
HNOS Valenzuela Loft AU21-FH-21516 0 0000-00-00 00:00:00.000 0.000 00:00:00
HNOS Valenzuela Loft AU21-FH-21556 0 0000-00-00 00:00:00.000 0.000 00:00:00
HNOS Valenzuela Loft AU21-FH-21581 0 0000-00-00 00:00:00.000 0.000 00:00:00
HNOS Valenzuela Loft AU21-FH-21585 0 0000-00-00 00:00:00.000 0.000 00:00:00
HNOS Valenzuela Loft AU21-FH-21589 0 0000-00-00 00:00:00.000 0.000 00:00:00
HNOS Valenzuela Loft AU21-FH-21596 0 0000-00-00 00:00:00.000 0.000 00:00:00
Nuevitas Loft AU21-ARPU-101705 0 0000-00-00 00:00:00.000 0.000 00:00:00
Nuevitas Loft AU21-ARPU-101706 0 0000-00-00 00:00:00.000 0.000 00:00:00
Nuevitas Loft AU21-ARPU-101709 0 0000-00-00 00:00:00.000 0.000 00:00:00
Nuevitas Loft AU21-ARPU-101714 0 0000-00-00 00:00:00.000 0.000 00:00:00
Nuevitas Loft AU21-ARPU-101715 0 0000-00-00 00:00:00.000 0.000 00:00:00
Nuevitas Loft AU21-ARPU-101720 0 0000-00-00 00:00:00.000 0.000 00:00:00
Nuevitas Loft AU21-ARPU-4901 0 0000-00-00 00:00:00.000 0.000 00:00:00
Nuevitas Loft AU21-ARPU-4909 0 0000-00-00 00:00:00.000 0.000 00:00:00
Nuevitas Loft AU21-ARPU-4912 0 0000-00-00 00:00:00.000 0.000 00:00:00
Nuevitas Loft AU21-ARPU-4924 0 0000-00-00 00:00:00.000 0.000 00:00:00
Nuevitas Loft AU21-ARPU-4939 0 0000-00-00 00:00:00.000 0.000 00:00:00
Nuevitas Loft AU21-ARPU-4957 0 0000-00-00 00:00:00.000 0.000 00:00:00
Nuevitas Loft AU21-ARPU-4968 0 0000-00-00 00:00:00.000 0.000 00:00:00
Nuevitas Loft AU21-ARPU-4974 0 0000-00-00 00:00:00.000 0.000 00:00:00
Nuevitas Loft AU21-ARPU-4977 0 0000-00-00 00:00:00.000 0.000 00:00:00
Nuevitas Loft AU21-ARPU-4988 0 0000-00-00 00:00:00.000 0.000 00:00:00
Nuevitas Loft AU21-ARPU-4994 0 0000-00-00 00:00:00.000 0.000 00:00:00
Nuevitas Loft AU21-ARPU-4996 0 0000-00-00 00:00:00.000 0.000 00:00:00
Nuevitas Loft AU21-NAPL-0611 0 0000-00-00 00:00:00.000 0.000 00:00:00
Nuevitas Loft AU21-NAPL-0612 0 0000-00-00 00:00:00.000 0.000 00:00:00
Nuevitas Loft AU21-NAPL-0626 0 0000-00-00 00:00:00.000 0.000 00:00:00
Nuevitas Loft AU21-NAPL-0644 0 0000-00-00 00:00:00.000 0.000 00:00:00
Pitita Loft AU21-FH-21333 0 0000-00-00 00:00:00.000 0.000 00:00:00
Pitita Loft AU21-FH-21393 0 0000-00-00 00:00:00.000 0.000 00:00:00
Pitita Loft AU21-FH-21415 0 0000-00-00 00:00:00.000 0.000 00:00:00
Pitita Loft AU21-FH-21424 0 0000-00-00 00:00:00.000 0.000 00:00:00
Pitita Loft AU21-FH-21425 0 0000-00-00 00:00:00.000 0.000 00:00:00
Pitita Loft AU21-FH-21439 0 0000-00-00 00:00:00.000 0.000 00:00:00
Pitita Loft AU21-FH-21445 0 0000-00-00 00:00:00.000 0.000 00:00:00
Silver Dollar Loft AU21-BEST-0005 0 0000-00-00 00:00:00.000 0.000 00:00:00
Silver Dollar Loft AU21-BEST-0032 0 0000-00-00 00:00:00.000 0.000 00:00:00
Silver Dollar Loft AU21-BEST-0044 0 0000-00-00 00:00:00.000 0.000 00:00:00
Silver Dollar Loft AU21-BIEC-1027 0 0000-00-00 00:00:00.000 0.000 00:00:00
Silver Dollar Loft AU21-SILV-0003 0 0000-00-00 00:00:00.000 0.000 00:00:00
Silver Dollar Loft AU21-SILV-0004 0 0000-00-00 00:00:00.000 0.000 00:00:00
Silver Dollar Loft AU21-SILV-0010 0 0000-00-00 00:00:00.000 0.000 00:00:00
Silver Dollar Loft AU21-SILV-0017 0 0000-00-00 00:00:00.000 0.000 00:00:00
Silver Dollar Loft AU21-SILV-0027 0 0000-00-00 00:00:00.000 0.000 00:00:00
Silver Dollar Loft AU21-SILV-0035 0 0000-00-00 00:00:00.000 0.000 00:00:00
Silver Dollar Loft AU21-SILV-0040 0 0000-00-00 00:00:00.000 0.000 00:00:00
Silver Dollar Loft AU21-SILV-0045 0 0000-00-00 00:00:00.000 0.000 00:00:00
Silver Dollar Loft AU21-SILV-0059 0 0000-00-00 00:00:00.000 0.000 00:00:00
Silver Dollar Loft AU21-SILV-0063 0 0000-00-00 00:00:00.000 0.000 00:00:00
Silver Dollar Loft AU21-SILV-0071 0 0000-00-00 00:00:00.000 0.000 00:00:00
Silver Dollar Loft AU21-SILV-0073 0 0000-00-00 00:00:00.000 0.000 00:00:00
Tuna Family Loft AU21-ARPU-100012 0 0000-00-00 00:00:00.000 0.000 00:00:00
Tuna Family Loft AU21-CHP-4192 0 0000-00-00 00:00:00.000 0.000 00:00:00
Tuna Family Loft AU21-CHP-5086 0 0000-00-00 00:00:00.000 0.000 00:00:00
Tuna Family Loft AU21-FH-21176 0 0000-00-00 00:00:00.000 0.000 00:00:00
Tuna Family Loft AU21-FOYS-7156 0 0000-00-00 00:00:00.000 0.000 00:00:00
Tuna Family Loft AU21-FOYS-7159 0 0000-00-00 00:00:00.000 0.000 00:00:00
Tuna Family Loft AU21-FOYS-7163 0 0000-00-00 00:00:00.000 0.000 00:00:00
Tuna Family Loft AU21-FOYS-7164 0 0000-00-00 00:00:00.000 0.000 00:00:00
Tuna Family Loft AU21-FOYS-7166 0 0000-00-00 00:00:00.000 0.000 00:00:00
Tuna Family Loft AU21-FOYS-7172 0 0000-00-00 00:00:00.000 0.000 00:00:00
Tuna Family Loft AU21-FOYS-7175 0 0000-00-00 00:00:00.000 0.000 00:00:00
Tuna Family Loft AU21-FOYS-7195 0 0000-00-00 00:00:00.000 0.000 00:00:00
Tuna Family Loft AU21-FRAN-0022 0 0000-00-00 00:00:00.000 0.000 00:00:00
Tuna Family Loft AU21-MART-0903 0 0000-00-00 00:00:00.000 0.000 00:00:00
Tuna Family Loft AU21-MART-0928 0 0000-00-00 00:00:00.000 0.000 00:00:00
Tuna Family Loft AU21-MART-0947 0 0000-00-00 00:00:00.000 0.000 00:00:00
Tuna Family Loft AU21-TUNA-0001 0 0000-00-00 00:00:00.000 0.000 00:00:00
Tuna Family Loft AU21-TUNA-0009 0 0000-00-00 00:00:00.000 0.000 00:00:00
Tuna Family Loft AU21-TUNA-0011 0 0000-00-00 00:00:00.000 0.000 00:00:00
Tuna Family Loft AU21-TUNA-0012 0 0000-00-00 00:00:00.000 0.000 00:00:00
Tuna Family Loft AU21-TUNA-0013 0 0000-00-00 00:00:00.000 0.000 00:00:00
Tuna Family Loft AU21-TUNA-0015 0 0000-00-00 00:00:00.000 0.000 00:00:00
Tuna Family Loft AU21-TUNA-0022 0 0000-00-00 00:00:00.000 0.000 00:00:00
Tuna Family Loft AU21-TUNA-0031 0 0000-00-00 00:00:00.000 0.000 00:00:00
Tuna Family Loft AU21-TUNA-0032 0 0000-00-00 00:00:00.000 0.000 00:00:00
Tuna Family Loft AU21-TUNA-0034 0 0000-00-00 00:00:00.000 0.000 00:00:00
Tuna Family Loft AU21-TUNA-0036 0 0000-00-00 00:00:00.000 0.000 00:00:00
Tuna Family Loft AU21-TUNA-0040 0 0000-00-00 00:00:00.000 0.000 00:00:00
Tuna Family Loft AU21-TUNA-0045 0 0000-00-00 00:00:00.000 0.000 00:00:00
Tuna Family Loft AU21-TUNA-0047 0 0000-00-00 00:00:00.000 0.000 00:00:00
Tuna Family Loft AU21-TUNA-0053 0 0000-00-00 00:00:00.000 0.000 00:00:00
Tuna Family Loft AU21-TUNA-0058 0 0000-00-00 00:00:00.000 0.000 00:00:00
Tuna Family Loft AU21-TUNA-0059 0 0000-00-00 00:00:00.000 0.000 00:00:00
Tuna Family Loft AU21-TUNA-0061 0 0000-00-00 00:00:00.000 0.000 00:00:00
Tuna Family Loft AU21-TUNA-0062 0 0000-00-00 00:00:00.000 0.000 00:00:00
Tuna Family Loft AU21-TUNA-0064 0 0000-00-00 00:00:00.000 0.000 00:00:00
Tuna Family Loft AU21-TUNA-0065 0 0000-00-00 00:00:00.000 0.000 00:00:00
Tuna Family Loft AU21-TUNA-0068 0 0000-00-00 00:00:00.000 0.000 00:00:00
Tuna Family Loft AU21-TUNA-0072 0 0000-00-00 00:00:00.000 0.000 00:00:00
Tuna Family Loft AU21-TUNA-0073 0 0000-00-00 00:00:00.000 0.000 00:00:00
Tuna Family Loft AU21-TUNA-0082 0 0000-00-00 00:00:00.000 0.000 00:00:00
Tuna Family Loft AU21-TUNA-0084 0 0000-00-00 00:00:00.000 0.000 00:00:00
Tuna Family Loft AU21-TUNA-0088 0 0000-00-00 00:00:00.000 0.000 00:00:00